sensor_id;sensor_type;location;lat;lon;timestamp;pressure;altitude;pressure_sealevel;temperature;humidity
73501;BME280;61721;42.206;25.320;2024-02-14T00:00:54;99086.75;;;9.78;65.42
73501;BME280;61721;42.206;25.320;2024-02-14T00:03:21;99091.63;;;9.51;65.92
73501;BME280;61721;42.206;25.320;2024-02-14T00:05:49;99096.16;;;9.57;66.65
73501;BME280;61721;42.206;25.320;2024-02-14T00:08:21;99098.31;;;9.91;65.02
73501;BME280;61721;42.206;25.320;2024-02-14T00:10:55;99090.91;;;9.37;66.70
73501;BME280;61721;42.206;25.320;2024-02-14T00:13:24;99095.34;;;9.56;65.94
73501;BME280;61721;42.206;25.320;2024-02-14T00:15:52;99093.47;;;9.75;65.98
73501;BME280;61721;42.206;25.320;2024-02-14T00:18:20;99103.03;;;9.35;66.57
73501;BME280;61721;42.206;25.320;2024-02-14T00:20:48;99101.38;;;9.34;66.52
73501;BME280;61721;42.206;25.320;2024-02-14T00:23:16;99104.25;;;9.82;65.50
73501;BME280;61721;42.206;25.320;2024-02-14T00:25:43;99110.47;;;9.46;66.12
73501;BME280;61721;42.206;25.320;2024-02-14T00:28:10;99100.81;;;9.00;67.54
73501;BME280;61721;42.206;25.320;2024-02-14T00:30:39;99100.91;;;8.87;68.11
73501;BME280;61721;42.206;25.320;2024-02-14T00:33:08;99107.22;;;8.81;68.15
73501;BME280;61721;42.206;25.320;2024-02-14T00:35:36;99104.09;;;9.09;67.46
73501;BME280;61721;42.206;25.320;2024-02-14T00:38:04;99100.06;;;8.86;67.54
73501;BME280;61721;42.206;25.320;2024-02-14T00:40:31;99111.25;;;9.03;67.49
73501;BME280;61721;42.206;25.320;2024-02-14T00:42:59;99104.59;;;8.99;67.17
73501;BME280;61721;42.206;25.320;2024-02-14T00:45:26;99105.94;;;8.83;67.51
73501;BME280;61721;42.206;25.320;2024-02-14T00:47:55;99115.69;;;8.91;67.29
73501;BME280;61721;42.206;25.320;2024-02-14T00:50:22;99103.19;;;8.90;67.82
73501;BME280;61721;42.206;25.320;2024-02-14T00:52:51;99110.00;;;8.99;67.63
73501;BME280;61721;42.206;25.320;2024-02-14T00:55:18;99109.31;;;8.79;67.32
73501;BME280;61721;42.206;25.320;2024-02-14T00:57:46;99113.91;;;8.78;68.04
73501;BME280;61721;42.206;25.320;2024-02-14T01:00:14;99110.91;;;8.93;67.42
73501;BME280;61721;42.206;25.320;2024-02-14T01:02:42;99113.16;;;8.65;68.23
73501;BME280;61721;42.206;25.320;2024-02-14T01:05:11;99117.44;;;8.79;67.77
73501;BME280;61721;42.206;25.320;2024-02-14T01:08:06;99119.44;;;9.21;67.10
73501;BME280;61721;42.206;25.320;2024-02-14T01:10:34;99121.56;;;9.19;66.58
73501;BME280;61721;42.206;25.320;2024-02-14T01:13:01;99121.56;;;9.19;66.24
73501;BME280;61721;42.206;25.320;2024-02-14T01:15:28;99125.16;;;9.38;66.46
73501;BME280;61721;42.206;25.320;2024-02-14T01:17:56;99128.81;;;9.25;66.19
73501;BME280;61721;42.206;25.320;2024-02-14T01:20:25;99127.41;;;9.66;65.04
73501;BME280;61721;42.206;25.320;2024-02-14T01:22:52;99122.69;;;9.80;64.96
73501;BME280;61721;42.206;25.320;2024-02-14T01:25:19;99135.09;;;10.30;62.77
73501;BME280;61721;42.206;25.320;2024-02-14T01:27:47;99128.50;;;9.83;64.03
73501;BME280;61721;42.206;25.320;2024-02-14T01:30:15;99131.53;;;10.48;62.83
73501;BME280;61721;42.206;25.320;2024-02-14T01:32:42;99138.66;;;10.49;62.48
73501;BME280;61721;42.206;25.320;2024-02-14T01:35:10;99143.09;;;10.62;62.25
73501;BME280;61721;42.206;25.320;2024-02-14T01:37:38;99148.88;;;10.84;61.68
73501;BME280;61721;42.206;25.320;2024-02-14T01:40:07;99135.31;;;10.65;61.52
73501;BME280;61721;42.206;25.320;2024-02-14T01:42:35;99144.31;;;10.66;60.92
73501;BME280;61721;42.206;25.320;2024-02-14T01:45:02;99133.97;;;10.56;62.08
73501;BME280;61721;42.206;25.320;2024-02-14T01:47:30;99141.66;;;10.59;61.50
73501;BME280;61721;42.206;25.320;2024-02-14T01:49:58;99142.16;;;10.68;61.75
73501;BME280;61721;42.206;25.320;2024-02-14T01:52:34;99140.31;;;10.50;61.75
73501;BME280;61721;42.206;25.320;2024-02-14T01:55:05;99140.00;;;10.40;61.47
73501;BME280;61721;42.206;25.320;2024-02-14T01:57:33;99143.63;;;10.52;62.05
73501;BME280;61721;42.206;25.320;2024-02-14T02:00:03;99137.56;;;10.68;61.17
73501;BME280;61721;42.206;25.320;2024-02-14T02:02:41;99141.03;;;10.57;61.61
73501;BME280;61721;42.206;25.320;2024-02-14T02:05:09;99141.31;;;10.19;62.81
73501;BME280;61721;42.206;25.320;2024-02-14T02:07:36;99140.41;;;9.82;64.64
73501;BME280;61721;42.206;25.320;2024-02-14T02:10:07;99139.03;;;9.23;66.79
73501;BME280;61721;42.206;25.320;2024-02-14T02:12:35;99142.81;;;9.72;65.76
73501;BME280;61721;42.206;25.320;2024-02-14T02:15:05;99140.22;;;9.34;66.81
73501;BME280;61721;42.206;25.320;2024-02-14T02:17:35;99144.66;;;9.53;66.50
73501;BME280;61721;42.206;25.320;2024-02-14T02:20:03;99139.84;;;9.30;67.50
73501;BME280;61721;42.206;25.320;2024-02-14T02:22:32;99140.69;;;8.62;70.25
73501;BME280;61721;42.206;25.320;2024-02-14T02:25:02;99146.84;;;8.82;70.04
73501;BME280;61721;42.206;25.320;2024-02-14T02:27:33;99152.91;;;8.84;69.37
73501;BME280;61721;42.206;25.320;2024-02-14T02:30:03;99158.47;;;8.51;70.50
73501;BME280;61721;42.206;25.320;2024-02-14T02:32:31;99154.44;;;8.67;70.17
73501;BME280;61721;42.206;25.320;2024-02-14T02:34:58;99148.72;;;8.30;71.31
73501;BME280;61721;42.206;25.320;2024-02-14T02:37:27;99155.41;;;8.34;71.32
73501;BME280;61721;42.206;25.320;2024-02-14T02:39:55;99160.34;;;8.50;70.89
73501;BME280;61721;42.206;25.320;2024-02-14T02:42:24;99161.78;;;8.60;71.01
73501;BME280;61721;42.206;25.320;2024-02-14T02:44:51;99162.78;;;8.65;70.35
73501;BME280;61721;42.206;25.320;2024-02-14T02:47:19;99161.72;;;8.73;70.39
73501;BME280;61721;42.206;25.320;2024-02-14T02:49:54;99171.00;;;8.90;70.19
73501;BME280;61721;42.206;25.320;2024-02-14T02:52:23;99172.00;;;8.96;69.49
73501;BME280;61721;42.206;25.320;2024-02-14T02:54:50;99166.72;;;9.39;68.21
73501;BME280;61721;42.206;25.320;2024-02-14T02:57:18;99171.09;;;9.40;68.15
73501;BME280;61721;42.206;25.320;2024-02-14T02:59:47;99181.63;;;9.23;68.08
73501;BME280;61721;42.206;25.320;2024-02-14T03:02:14;99176.53;;;9.40;67.67
73501;BME280;61721;42.206;25.320;2024-02-14T03:04:42;99181.41;;;9.31;68.57
73501;BME280;61721;42.206;25.320;2024-02-14T03:07:09;99188.78;;;9.17;69.62
73501;BME280;61721;42.206;25.320;2024-02-14T03:09:37;99191.31;;;9.44;67.67
73501;BME280;61721;42.206;25.320;2024-02-14T03:12:05;99197.25;;;9.59;66.76
73501;BME280;61721;42.206;25.320;2024-02-14T03:14:32;99193.38;;;9.73;66.89
73501;BME280;61721;42.206;25.320;2024-02-14T03:17:03;99195.41;;;9.53;66.93
73501;BME280;61721;42.206;25.320;2024-02-14T03:19:30;99201.25;;;9.56;67.61
73501;BME280;61721;42.206;25.320;2024-02-14T03:22:02;99200.78;;;9.84;66.62
73501;BME280;61721;42.206;25.320;2024-02-14T03:24:31;99205.13;;;9.67;66.41
73501;BME280;61721;42.206;25.320;2024-02-14T03:27:01;99211.47;;;9.61;66.47
73501;BME280;61721;42.206;25.320;2024-02-14T03:29:30;99211.91;;;9.26;67.38
73501;BME280;61721;42.206;25.320;2024-02-14T03:31:59;99211.09;;;10.00;65.96
73501;BME280;61721;42.206;25.320;2024-02-14T03:34:31;99215.66;;;10.07;65.03
73501;BME280;61721;42.206;25.320;2024-02-14T03:37:01;99216.66;;;9.87;65.61
73501;BME280;61721;42.206;25.320;2024-02-14T03:39:30;99219.03;;;10.02;65.37
73501;BME280;61721;42.206;25.320;2024-02-14T03:41:57;99219.91;;;10.21;64.49
73501;BME280;61721;42.206;25.320;2024-02-14T03:44:28;99213.78;;;9.82;64.79
73501;BME280;61721;42.206;25.320;2024-02-14T03:46:56;99225.53;;;9.76;66.06
73501;BME280;61721;42.206;25.320;2024-02-14T03:49:24;99223.88;;;9.44;67.23
73501;BME280;61721;42.206;25.320;2024-02-14T03:51:59;99224.75;;;9.69;66.36
73501;BME280;61721;42.206;25.320;2024-02-14T03:54:27;99236.41;;;9.13;68.47
73501;BME280;61721;42.206;25.320;2024-02-14T03:56:54;99239.81;;;9.65;66.56
73501;BME280;61721;42.206;25.320;2024-02-14T03:59:22;99229.69;;;9.22;66.79
73501;BME280;61721;42.206;25.320;2024-02-14T04:01:50;99237.44;;;8.68;67.84
73501;BME280;61721;42.206;25.320;2024-02-14T04:04:19;99237.28;;;9.07;67.33
73501;BME280;61721;42.206;25.320;2024-02-14T04:06:46;99234.56;;;8.63;68.18
73501;BME280;61721;42.206;25.320;2024-02-14T04:09:15;99231.59;;;8.71;68.09
73501;BME280;61721;42.206;25.320;2024-02-14T04:11:43;99230.81;;;9.08;67.14
73501;BME280;61721;42.206;25.320;2024-02-14T04:14:10;99235.78;;;9.43;65.98
73501;BME280;61721;42.206;25.320;2024-02-14T04:16:38;99238.69;;;9.48;66.24
73501;BME280;61721;42.206;25.320;2024-02-14T04:19:06;99244.47;;;9.58;65.62
73501;BME280;61721;42.206;25.320;2024-02-14T04:21:34;99251.38;;;9.60;65.90
73501;BME280;61721;42.206;25.320;2024-02-14T04:24:02;99255.34;;;9.83;64.81
73501;BME280;61721;42.206;25.320;2024-02-14T04:26:31;99268.56;;;9.79;64.54
73501;BME280;61721;42.206;25.320;2024-02-14T04:28:58;99260.06;;;9.38;66.39
73501;BME280;61721;42.206;25.320;2024-02-14T04:31:25;99257.44;;;9.56;65.56
73501;BME280;61721;42.206;25.320;2024-02-14T04:33:55;99264.50;;;9.32;66.31
73501;BME280;61721;42.206;25.320;2024-02-14T04:36:22;99262.59;;;9.32;66.26
73501;BME280;61721;42.206;25.320;2024-02-14T04:38:50;99260.81;;;8.69;68.80
73501;BME280;61721;42.206;25.320;2024-02-14T04:41:19;99263.88;;;9.30;67.48
73501;BME280;61721;42.206;25.320;2024-02-14T04:43:48;99271.63;;;8.82;68.43
73501;BME280;61721;42.206;25.320;2024-02-14T04:46:15;99273.03;;;9.36;66.75
73501;BME280;61721;42.206;25.320;2024-02-14T04:48:43;99268.22;;;9.00;67.59
73501;BME280;61721;42.206;25.320;2024-02-14T04:51:10;99263.06;;;9.23;67.47
73501;BME280;61721;42.206;25.320;2024-02-14T04:53:38;99267.78;;;8.96;68.09
73501;BME280;61721;42.206;25.320;2024-02-14T04:56:06;99261.31;;;8.97;68.61
73501;BME280;61721;42.206;25.320;2024-02-14T04:58:34;99268.31;;;8.73;69.43
73501;BME280;61721;42.206;25.320;2024-02-14T05:01:03;99274.19;;;8.64;69.37
73501;BME280;61721;42.206;25.320;2024-02-14T05:03:32;99265.84;;;8.59;69.41
73501;BME280;61721;42.206;25.320;2024-02-14T05:06:00;99279.84;;;8.49;69.79
73501;BME280;61721;42.206;25.320;2024-02-14T05:08:28;99274.59;;;8.74;69.09
73501;BME280;61721;42.206;25.320;2024-02-14T05:10:56;99288.16;;;9.18;68.37
73501;BME280;61721;42.206;25.320;2024-02-14T05:13:23;99288.38;;;9.55;66.13
73501;BME280;61721;42.206;25.320;2024-02-14T05:15:50;99296.34;;;9.50;66.16
73501;BME280;61721;42.206;25.320;2024-02-14T05:18:20;99302.72;;;9.30;65.93
73501;BME280;61721;42.206;25.320;2024-02-14T05:20:47;99302.59;;;9.12;67.58
73501;BME280;61721;42.206;25.320;2024-02-14T05:23:15;99314.25;;;9.19;67.09
73501;BME280;61721;42.206;25.320;2024-02-14T05:25:43;99315.09;;;9.58;66.00
73501;BME280;61721;42.206;25.320;2024-02-14T05:28:11;99320.28;;;9.91;65.07
73501;BME280;61721;42.206;25.320;2024-02-14T05:30:40;99335.44;;;9.80;65.15
73501;BME280;61721;42.206;25.320;2024-02-14T05:33:08;99334.09;;;9.58;65.56
73501;BME280;61721;42.206;25.320;2024-02-14T05:35:36;99329.34;;;9.47;65.85
73501;BME280;61721;42.206;25.320;2024-02-14T05:38:04;99336.88;;;9.45;65.57
73501;BME280;61721;42.206;25.320;2024-02-14T05:40:33;99335.22;;;9.44;66.64
73501;BME280;61721;42.206;25.320;2024-02-14T05:43:05;99338.09;;;9.11;66.95
73501;BME280;61721;42.206;25.320;2024-02-14T05:45:34;99339.81;;;9.43;66.33
73501;BME280;61721;42.206;25.320;2024-02-14T05:48:01;99346.69;;;9.46;66.22
73501;BME280;61721;42.206;25.320;2024-02-14T05:50:29;99351.72;;;9.49;65.81
73501;BME280;61721;42.206;25.320;2024-02-14T05:52:58;99354.75;;;9.65;65.16
73501;BME280;61721;42.206;25.320;2024-02-14T05:55:25;99356.81;;;9.70;65.42
73501;BME280;61721;42.206;25.320;2024-02-14T05:57:53;99365.31;;;9.80;65.28
73501;BME280;61721;42.206;25.320;2024-02-14T06:00:21;99364.34;;;9.68;65.48
73501;BME280;61721;42.206;25.320;2024-02-14T06:02:48;99359.69;;;9.75;65.55
73501;BME280;61721;42.206;25.320;2024-02-14T06:05:16;99364.25;;;9.81;64.95
73501;BME280;61721;42.206;25.320;2024-02-14T06:07:44;99364.00;;;9.89;64.93
73501;BME280;61721;42.206;25.320;2024-02-14T06:10:13;99368.38;;;9.90;64.80
73501;BME280;61721;42.206;25.320;2024-02-14T06:12:40;99373.63;;;9.85;64.44
73501;BME280;61721;42.206;25.320;2024-02-14T06:15:09;99375.31;;;9.86;64.60
73501;BME280;61721;42.206;25.320;2024-02-14T06:17:37;99382.38;;;9.56;65.43
73501;BME280;61721;42.206;25.320;2024-02-14T06:20:05;99381.69;;;9.67;65.46
73501;BME280;61721;42.206;25.320;2024-02-14T06:22:33;99386.88;;;9.75;65.35
73501;BME280;61721;42.206;25.320;2024-02-14T06:25:00;99383.88;;;9.83;64.34
73501;BME280;61721;42.206;25.320;2024-02-14T06:27:32;99394.06;;;9.94;64.59
73501;BME280;61721;42.206;25.320;2024-02-14T06:29:59;99395.13;;;9.93;64.45
73501;BME280;61721;42.206;25.320;2024-02-14T06:32:26;99400.97;;;9.90;64.27
73501;BME280;61721;42.206;25.320;2024-02-14T06:34:54;99409.59;;;9.87;63.98
73501;BME280;61721;42.206;25.320;2024-02-14T06:37:21;99408.53;;;9.88;63.91
73501;BME280;61721;42.206;25.320;2024-02-14T06:39:49;99411.78;;;10.03;63.26
73501;BME280;61721;42.206;25.320;2024-02-14T06:42:16;99406.78;;;10.00;63.69
73501;BME280;61721;42.206;25.320;2024-02-14T06:44:46;99410.16;;;9.96;63.93
73501;BME280;61721;42.206;25.320;2024-02-14T06:47:13;99419.84;;;9.85;64.34
73501;BME280;61721;42.206;25.320;2024-02-14T06:49:40;99422.22;;;10.07;63.50
73501;BME280;61721;42.206;25.320;2024-02-14T06:52:08;99413.56;;;9.85;64.11
73501;BME280;61721;42.206;25.320;2024-02-14T06:54:35;99418.25;;;10.02;63.69
73501;BME280;61721;42.206;25.320;2024-02-14T06:57:03;99416.44;;;9.96;64.08
73501;BME280;61721;42.206;25.320;2024-02-14T06:59:31;99427.59;;;10.20;63.33
73501;BME280;61721;42.206;25.320;2024-02-14T07:02:00;99444.31;;;10.17;63.63
73501;BME280;61721;42.206;25.320;2024-02-14T07:04:27;99442.25;;;10.19;63.22
73501;BME280;61721;42.206;25.320;2024-02-14T07:06:55;99443.03;;;10.26;63.17
73501;BME280;61721;42.206;25.320;2024-02-14T07:09:22;99443.66;;;9.90;63.91
73501;BME280;61721;42.206;25.320;2024-02-14T07:11:51;99451.97;;;9.95;64.16
73501;BME280;61721;42.206;25.320;2024-02-14T07:14:22;99457.50;;;9.75;64.34
73501;BME280;61721;42.206;25.320;2024-02-14T07:16:49;99464.41;;;10.16;63.39
73501;BME280;61721;42.206;25.320;2024-02-14T07:19:19;99462.97;;;9.62;64.64
73501;BME280;61721;42.206;25.320;2024-02-14T07:21:47;99473.47;;;9.52;65.29
73501;BME280;61721;42.206;25.320;2024-02-14T07:24:14;99478.34;;;9.23;65.96
73501;BME280;61721;42.206;25.320;2024-02-14T07:26:41;99477.56;;;8.77;67.68
73501;BME280;61721;42.206;25.320;2024-02-14T07:29:10;99479.88;;;8.93;67.72
73501;BME280;61721;42.206;25.320;2024-02-14T07:31:37;99482.16;;;9.03;66.89
73501;BME280;61721;42.206;25.320;2024-02-14T07:34:05;99483.41;;;8.87;66.92
73501;BME280;61721;42.206;25.320;2024-02-14T07:36:34;99488.00;;;8.86;67.14
73501;BME280;61721;42.206;25.320;2024-02-14T07:39:01;99485.31;;;8.73;67.85
73501;BME280;61721;42.206;25.320;2024-02-14T07:41:29;99493.63;;;8.85;67.42
73501;BME280;61721;42.206;25.320;2024-02-14T07:43:56;99492.81;;;8.65;67.91
73501;BME280;61721;42.206;25.320;2024-02-14T07:46:24;99495.31;;;8.73;67.41
73501;BME280;61721;42.206;25.320;2024-02-14T07:48:53;99502.81;;;8.97;67.07
73501;BME280;61721;42.206;25.320;2024-02-14T07:51:20;99496.97;;;8.87;67.50
73501;BME280;61721;42.206;25.320;2024-02-14T07:53:50;99503.22;;;8.87;67.81
73501;BME280;61721;42.206;25.320;2024-02-14T07:56:17;99513.25;;;8.87;67.85
73501;BME280;61721;42.206;25.320;2024-02-14T07:58:45;99507.59;;;9.08;67.48
73501;BME280;61721;42.206;25.320;2024-02-14T08:01:12;99506.53;;;9.29;66.39
73501;BME280;61721;42.206;25.320;2024-02-14T08:03:40;99504.88;;;8.95;67.52
73501;BME280;61721;42.206;25.320;2024-02-14T08:06:08;99508.66;;;9.01;67.58
73501;BME280;61721;42.206;25.320;2024-02-14T08:08:36;99509.09;;;8.91;67.64
73501;BME280;61721;42.206;25.320;2024-02-14T08:11:05;99515.75;;;8.82;68.16
73501;BME280;61721;42.206;25.320;2024-02-14T08:13:33;99520.31;;;9.14;67.76
73501;BME280;61721;42.206;25.320;2024-02-14T08:16:02;99516.38;;;8.97;67.57
73501;BME280;61721;42.206;25.320;2024-02-14T08:18:29;99519.28;;;9.15;66.97
73501;BME280;61721;42.206;25.320;2024-02-14T08:20:56;99522.63;;;9.04;67.57
73501;BME280;61721;42.206;25.320;2024-02-14T08:23:24;99525.97;;;9.19;67.01
73501;BME280;61721;42.206;25.320;2024-02-14T08:25:52;99527.22;;;8.97;67.37
73501;BME280;61721;42.206;25.320;2024-02-14T08:28:21;99531.16;;;9.34;66.73
73501;BME280;61721;42.206;25.320;2024-02-14T08:30:48;99529.81;;;9.76;65.69
73501;BME280;61721;42.206;25.320;2024-02-14T08:33:16;99526.94;;;9.58;65.88
73501;BME280;61721;42.206;25.320;2024-02-14T08:35:43;99536.09;;;9.63;65.53
73501;BME280;61721;42.206;25.320;2024-02-14T08:38:11;99539.47;;;9.59;65.48
73501;BME280;61721;42.206;25.320;2024-02-14T08:40:38;99543.88;;;9.47;65.62
73501;BME280;61721;42.206;25.320;2024-02-14T08:43:05;99550.84;;;9.03;66.87
73501;BME280;61721;42.206;25.320;2024-02-14T08:45:34;99554.97;;;9.25;66.61
73501;BME280;61721;42.206;25.320;2024-02-14T08:48:03;99556.03;;;9.18;66.99
73501;BME280;61721;42.206;25.320;2024-02-14T08:50:31;99551.44;;;9.18;66.90
73501;BME280;61721;42.206;25.320;2024-02-14T08:52:58;99552.91;;;9.14;66.59
73501;BME280;61721;42.206;25.320;2024-02-14T08:55:26;99555.00;;;9.12;67.66
73501;BME280;61721;42.206;25.320;2024-02-14T08:57:54;99562.50;;;9.23;67.10
73501;BME280;61721;42.206;25.320;2024-02-14T09:00:22;99558.66;;;9.77;66.21
73501;BME280;61721;42.206;25.320;2024-02-14T09:02:52;99562.47;;;9.56;66.33
73501;BME280;61721;42.206;25.320;2024-02-14T09:05:19;99568.16;;;9.28;66.09
73501;BME280;61721;42.206;25.320;2024-02-14T09:07:50;99572.09;;;9.32;65.75
73501;BME280;61721;42.206;25.320;2024-02-14T09:10:17;99572.09;;;9.32;66.04
73501;BME280;61721;42.206;25.320;2024-02-14T09:12:44;99571.91;;;9.41;65.10
73501;BME280;61721;42.206;25.320;2024-02-14T09:15:12;99572.50;;;9.43;65.83
73501;BME280;61721;42.206;25.320;2024-02-14T09:17:39;99572.88;;;9.66;65.50
73501;BME280;61721;42.206;25.320;2024-02-14T09:20:09;99579.97;;;9.74;64.74
73501;BME280;61721;42.206;25.320;2024-02-14T09:22:40;99573.63;;;9.99;64.70
73501;BME280;61721;42.206;25.320;2024-02-14T09:25:09;99571.59;;;9.75;64.38
73501;BME280;61721;42.206;25.320;2024-02-14T09:27:36;99575.75;;;9.84;64.44
73501;BME280;61721;42.206;25.320;2024-02-14T09:30:05;99575.78;;;9.71;64.53
73501;BME280;61721;42.206;25.320;2024-02-14T09:32:33;99584.56;;;9.80;64.37
73501;BME280;61721;42.206;25.320;2024-02-14T09:35:00;99575.34;;;9.87;64.08
73501;BME280;61721;42.206;25.320;2024-02-14T09:37:32;99578.22;;;10.05;63.34
73501;BME280;61721;42.206;25.320;2024-02-14T09:40:00;99571.91;;;10.12;63.64
73501;BME280;61721;42.206;25.320;2024-02-14T09:42:32;99567.78;;;9.96;63.32
73501;BME280;61721;42.206;25.320;2024-02-14T09:45:04;99569.53;;;9.77;64.33
73501;BME280;61721;42.206;25.320;2024-02-14T09:47:34;99572.63;;;9.87;64.29
73501;BME280;61721;42.206;25.320;2024-02-14T09:50:02;99565.28;;;9.94;64.30
73501;BME280;61721;42.206;25.320;2024-02-14T09:52:34;99564.84;;;9.97;63.94
73501;BME280;61721;42.206;25.320;2024-02-14T09:55:03;99567.31;;;10.19;64.00
73501;BME280;61721;42.206;25.320;2024-02-14T09:57:32;99554.78;;;10.18;63.42
73501;BME280;61721;42.206;25.320;2024-02-14T10:00:00;99560.84;;;10.00;63.63
73501;BME280;61721;42.206;25.320;2024-02-14T10:02:30;99548.09;;;10.00;63.69
73501;BME280;61721;42.206;25.320;2024-02-14T10:04:57;99558.13;;;10.07;63.14
73501;BME280;61721;42.206;25.320;2024-02-14T10:07:25;99545.13;;;10.22;62.38
73501;BME280;61721;42.206;25.320;2024-02-14T10:09:53;99551.00;;;10.19;61.63
73501;BME280;61721;42.206;25.320;2024-02-14T10:12:21;99552.72;;;9.93;63.10
73501;BME280;61721;42.206;25.320;2024-02-14T10:14:48;99552.94;;;9.98;63.44
73501;BME280;61721;42.206;25.320;2024-02-14T10:17:19;99555.59;;;10.12;61.88
73501;BME280;61721;42.206;25.320;2024-02-14T10:19:56;99552.66;;;10.20;61.46
73501;BME280;61721;42.206;25.320;2024-02-14T10:22:23;99562.69;;;10.13;61.42
73501;BME280;61721;42.206;25.320;2024-02-14T10:24:50;99552.16;;;10.36;61.36
73501;BME280;61721;42.206;25.320;2024-02-14T10:27:20;99555.53;;;10.31;61.23
73501;BME280;61721;42.206;25.320;2024-02-14T10:29:48;99548.88;;;10.27;61.18
73501;BME280;61721;42.206;25.320;2024-02-14T10:32:15;99557.66;;;10.23;60.75
73501;BME280;61721;42.206;25.320;2024-02-14T10:34:45;99553.91;;;10.11;61.68
73501;BME280;61721;42.206;25.320;2024-02-14T10:37:13;99561.66;;;10.58;61.70
73501;BME280;61721;42.206;25.320;2024-02-14T10:39:43;99559.19;;;10.50;62.20
73501;BME280;61721;42.206;25.320;2024-02-14T10:42:12;99562.94;;;10.04;62.50
73501;BME280;61721;42.206;25.320;2024-02-14T10:44:42;99564.91;;;9.84;64.02
73501;BME280;61721;42.206;25.320;2024-02-14T10:47:11;99557.59;;;10.36;64.26
73501;BME280;61721;42.206;25.320;2024-02-14T10:49:43;99564.53;;;10.32;64.67
73501;BME280;61721;42.206;25.320;2024-02-14T10:52:15;99565.50;;;10.44;64.53
73501;BME280;61721;42.206;25.320;2024-02-14T10:54:47;99567.91;;;10.21;64.85
73501;BME280;61721;42.206;25.320;2024-02-14T10:57:19;99571.47;;;10.28;65.14
73501;BME280;61721;42.206;25.320;2024-02-14T10:59:50;99567.72;;;10.16;66.84
73501;BME280;61721;42.206;25.320;2024-02-14T11:02:19;99567.59;;;9.84;65.87
73501;BME280;61721;42.206;25.320;2024-02-14T11:04:48;99568.66;;;9.83;66.05
73501;BME280;61721;42.206;25.320;2024-02-14T11:07:20;99566.53;;;9.98;66.18
73501;BME280;61721;42.206;25.320;2024-02-14T11:09:52;99566.47;;;10.12;65.70
73501;BME280;61721;42.206;25.320;2024-02-14T11:12:32;99557.34;;;9.99;65.57
73501;BME280;61721;42.206;25.320;2024-02-14T11:15:09;99557.78;;;9.83;66.44
73501;BME280;61721;42.206;25.320;2024-02-14T11:17:37;99559.88;;;9.81;65.58
73501;BME280;61721;42.206;25.320;2024-02-14T11:20:15;99556.75;;;9.84;65.31
73501;BME280;61721;42.206;25.320;2024-02-14T11:22:56;99551.44;;;10.02;64.77
73501;BME280;61721;42.206;25.320;2024-02-14T11:25:28;99553.28;;;10.22;64.25
73501;BME280;61721;42.206;25.320;2024-02-14T11:28:00;99545.84;;;10.42;62.68
73501;BME280;61721;42.206;25.320;2024-02-14T11:30:31;99547.16;;;10.33;62.62
73501;BME280;61721;42.206;25.320;2024-02-14T11:33:17;99548.88;;;10.21;62.90
73501;BME280;61721;42.206;25.320;2024-02-14T11:35:46;99546.53;;;10.31;63.24
73501;BME280;61721;42.206;25.320;2024-02-14T11:38:17;99551.19;;;10.11;63.20
73501;BME280;61721;42.206;25.320;2024-02-14T11:40:45;99545.38;;;10.52;63.26
73501;BME280;61721;42.206;25.320;2024-02-14T11:43:13;99538.84;;;10.15;61.56
73501;BME280;61721;42.206;25.320;2024-02-14T11:45:42;99536.34;;;10.20;61.40
73501;BME280;61721;42.206;25.320;2024-02-14T11:48:12;99538.41;;;10.24;62.07
73501;BME280;61721;42.206;25.320;2024-02-14T11:50:41;99548.75;;;10.47;61.53
73501;BME280;61721;42.206;25.320;2024-02-14T11:53:11;99546.16;;;10.59;61.11
73501;BME280;61721;42.206;25.320;2024-02-14T11:55:40;99541.63;;;10.77;60.02
73501;BME280;61721;42.206;25.320;2024-02-14T11:58:08;99542.53;;;10.71;59.88
73501;BME280;61721;42.206;25.320;2024-02-14T12:00:37;99550.34;;;10.86;59.50
73501;BME280;61721;42.206;25.320;2024-02-14T12:03:10;99540.84;;;10.39;58.26
73501;BME280;61721;42.206;25.320;2024-02-14T12:05:38;99550.50;;;10.35;57.51
73501;BME280;61721;42.206;25.320;2024-02-14T12:08:07;99547.00;;;10.59;57.24
73501;BME280;61721;42.206;25.320;2024-02-14T12:10:35;99549.09;;;10.89;56.63
73501;BME280;61721;42.206;25.320;2024-02-14T12:13:07;99543.28;;;10.54;56.75
73501;BME280;61721;42.206;25.320;2024-02-14T12:15:38;99539.53;;;10.48;56.93
73501;BME280;61721;42.206;25.320;2024-02-14T12:18:07;99546.03;;;10.78;57.12
73501;BME280;61721;42.206;25.320;2024-02-14T12:20:35;99538.00;;;10.90;56.40
73501;BME280;61721;42.206;25.320;2024-02-14T12:23:04;99544.53;;;10.83;57.36
73501;BME280;61721;42.206;25.320;2024-02-14T12:25:33;99537.94;;;10.97;57.28
73501;BME280;61721;42.206;25.320;2024-02-14T12:28:01;99537.34;;;10.63;56.28
73501;BME280;61721;42.206;25.320;2024-02-14T12:30:42;99548.13;;;10.76;55.50
73501;BME280;61721;42.206;25.320;2024-02-14T12:33:24;99536.53;;;10.63;54.63
73501;BME280;61721;42.206;25.320;2024-02-14T12:35:53;99539.50;;;10.55;55.36
73501;BME280;61721;42.206;25.320;2024-02-14T12:38:21;99535.25;;;10.65;55.81
73501;BME280;61721;42.206;25.320;2024-02-14T12:40:50;99536.31;;;10.89;55.09
73501;BME280;61721;42.206;25.320;2024-02-14T12:43:19;99536.50;;;11.19;55.08
73501;BME280;61721;42.206;25.320;2024-02-14T12:45:46;99533.94;;;11.24;54.70
73501;BME280;61721;42.206;25.320;2024-02-14T12:48:23;99539.91;;;11.14;54.48
73501;BME280;61721;42.206;25.320;2024-02-14T12:50:52;99540.16;;;11.06;54.98
73501;BME280;61721;42.206;25.320;2024-02-14T12:53:20;99538.81;;;11.15;53.08
73501;BME280;61721;42.206;25.320;2024-02-14T12:55:48;99542.56;;;11.21;52.35
73501;BME280;61721;42.206;25.320;2024-02-14T12:58:17;99536.22;;;11.45;51.56
73501;BME280;61721;42.206;25.320;2024-02-14T13:00:45;99546.72;;;11.24;52.55
73501;BME280;61721;42.206;25.320;2024-02-14T13:03:13;99534.94;;;11.30;52.67
73501;BME280;61721;42.206;25.320;2024-02-14T13:05:42;99541.00;;;11.32;53.39